createdAt,value
2023-01-19T00:00:47.569Z,7.35
2023-01-19T00:03:18.449Z,7.62
2023-01-19T00:05:46.219Z,7.55
2023-01-19T00:08:16.729Z,7.30
2023-01-19T00:10:49.197Z,7.18
2023-01-19T00:13:16.649Z,7.32
2023-01-19T00:15:44.575Z,6.47
2023-01-19T00:18:12.024Z,6.53
2023-01-19T00:20:40.607Z,5.87
2023-01-19T00:23:08.826Z,4.62
2023-01-19T00:25:42.212Z,4.10
2023-01-19T00:28:11.414Z,4.68
2023-01-19T00:30:39.648Z,5.55
2023-01-19T00:33:07.074Z,5.30
2023-01-19T00:35:35.763Z,4.00
2023-01-19T00:38:03.683Z,3.90
2023-01-19T00:40:31.099Z,4.37
2023-01-19T00:43:00.169Z,3.87
2023-01-19T00:45:27.770Z,3.78
2023-01-19T00:47:57.146Z,4.55
2023-01-19T00:50:29.381Z,3.78
2023-01-19T00:52:57.733Z,3.72
2023-01-19T00:55:25.625Z,3.92
2023-01-19T00:57:52.964Z,3.65
2023-01-19T01:00:21.415Z,3.87
2023-01-19T01:02:51.479Z,3.75
2023-01-19T01:05:19.300Z,2.15
2023-01-19T01:07:48.286Z,1.92
2023-01-19T01:10:23.332Z,2.70
2023-01-19T01:12:57.666Z,2.17
2023-01-19T01:15:28.091Z,2.53
2023-01-19T01:17:55.911Z,2.20
2023-01-19T01:20:27.659Z,1.95
2023-01-19T01:22:57.228Z,2.58
2023-01-19T01:25:26.646Z,1.92
2023-01-19T01:27:54.783Z,2.37
2023-01-19T01:30:22.870Z,1.87
2023-01-19T01:32:50.286Z,3.15
2023-01-19T01:35:17.785Z,2.20
2023-01-19T01:37:45.522Z,1.80
2023-01-19T01:40:14.936Z,1.85
2023-01-19T01:42:42.891Z,1.67
2023-01-19T01:45:33.389Z,1.27
2023-01-19T01:48:28.505Z,0.85
2023-01-19T01:51:25.290Z,1.17
2023-01-19T01:54:02.684Z,0.90
2023-01-19T01:56:43.768Z,0.88
2023-01-19T01:59:34.895Z,0.90
2023-01-19T02:02:24.867Z,0.98
2023-01-19T02:04:58.421Z,0.50
2023-01-19T02:08:31.647Z,2.65
2023-01-19T02:11:18.277Z,1.05
2023-01-19T02:13:47.011Z,0.90
2023-01-19T02:16:15.725Z,1.58
2023-01-19T02:18:43.297Z,0.55
2023-01-19T02:21:23.828Z,0.85
2023-01-19T02:23:53.813Z,1.45
2023-01-19T02:26:27.260Z,0.93
2023-01-19T02:28:57.810Z,0.40
2023-01-19T02:31:26.471Z,1.80
2023-01-19T02:33:54.831Z,0.37
2023-01-19T02:36:29.296Z,0.65
2023-01-19T02:38:57.495Z,0.43
2023-01-19T02:41:28.918Z,0.75
2023-01-19T02:43:57.458Z,0.35
2023-01-19T02:46:25.684Z,0.90
2023-01-19T02:48:53.016Z,1.02
2023-01-19T02:51:21.447Z,0.70
2023-01-19T02:54:23.866Z,1.98
2023-01-19T02:57:09.848Z,0.82
2023-01-19T03:00:02.369Z,0.80
2023-01-19T03:02:46.383Z,0.65
2023-01-19T03:05:58.582Z,0.82
2023-01-19T03:08:48.539Z,0.85
2023-01-19T03:11:16.301Z,0.80
2023-01-19T03:14:04.132Z,0.40
2023-01-19T03:16:44.009Z,0.60
2023-01-19T03:19:19.712Z,2.00
2023-01-19T03:22:05.015Z,0.32
2023-01-19T03:24:37.068Z,0.98
2023-01-19T03:27:26.540Z,0.98
2023-01-19T03:30:13.153Z,0.77
2023-01-19T03:33:08.024Z,0.57
2023-01-19T03:35:37.537Z,0.30
2023-01-19T03:38:15.019Z,0.65
2023-01-19T03:40:42.760Z,1.00
2023-01-19T03:43:10.604Z,0.68
2023-01-19T03:45:38.720Z,0.80
2023-01-19T03:48:06.414Z,1.23
2023-01-19T03:50:34.022Z,1.48
2023-01-19T03:53:05.828Z,0.77
2023-01-19T03:55:34.440Z,0.95
2023-01-19T03:58:02.415Z,1.30
2023-01-19T04:00:29.911Z,1.95
2023-01-19T04:02:57.728Z,1.30
2023-01-19T04:05:25.339Z,2.62
2023-01-19T04:07:52.787Z,2.42
2023-01-19T04:10:21.134Z,1.80
2023-01-19T04:12:48.734Z,1.40
2023-01-19T04:15:16.329Z,1.70
2023-01-19T04:17:44.211Z,1.70
2023-01-19T04:20:11.746Z,3.90
2023-01-19T04:22:39.639Z,1.85
2023-01-19T04:25:08.296Z,2.50
2023-01-19T04:27:36.398Z,2.40
2023-01-19T04:30:04.527Z,1.40
2023-01-19T04:32:32.563Z,1.42
2023-01-19T04:35:00.207Z,1.12
2023-01-19T04:37:27.713Z,2.22
2023-01-19T04:39:55.379Z,0.77
2023-01-19T04:42:23.011Z,1.85
2023-01-19T04:44:50.416Z,1.50
2023-01-19T04:47:18.033Z,1.65
2023-01-19T04:49:45.669Z,0.80
2023-01-19T04:52:13.283Z,0.50
2023-01-19T04:54:40.980Z,0.20
2023-01-19T04:57:08.386Z,0.32
2023-01-19T04:59:35.788Z,1.17
2023-01-19T05:02:03.582Z,1.80
2023-01-19T05:04:30.965Z,1.15
2023-01-19T05:06:58.453Z,1.25
2023-01-19T05:09:27.164Z,1.58
2023-01-19T05:11:54.557Z,1.85
2023-01-19T05:14:22.094Z,2.62
2023-01-19T05:16:49.746Z,2.08
2023-01-19T05:19:17.194Z,3.50
2023-01-19T05:21:44.573Z,2.35
2023-01-19T05:24:12.365Z,0.88
2023-01-19T05:26:39.784Z,0.80
2023-01-19T05:29:08.107Z,2.28
2023-01-19T05:31:37.131Z,2.28
2023-01-19T05:34:04.967Z,7.45
2023-01-19T05:36:32.705Z,11.48
2023-01-19T05:39:00.410Z,10.05
2023-01-19T05:41:27.742Z,9.68
2023-01-19T05:43:55.127Z,7.45
2023-01-19T05:46:22.871Z,5.90
2023-01-19T05:48:50.613Z,5.22
2023-01-19T05:51:17.987Z,4.22
2023-01-19T05:53:45.609Z,1.10
2023-01-19T05:56:13.066Z,1.20
2023-01-19T05:58:40.543Z,1.23
2023-01-19T06:01:10.259Z,0.77
2023-01-19T06:03:39.516Z,2.08
2023-01-19T06:06:07.103Z,1.83
2023-01-19T06:08:34.483Z,1.20
2023-01-19T06:11:02.193Z,1.73
2023-01-19T06:13:29.776Z,1.37
2023-01-19T06:16:01.388Z,1.40
2023-01-19T06:18:29.434Z,1.60
2023-01-19T06:20:58.842Z,1.40
2023-01-19T06:23:29.974Z,2.80
2023-01-19T06:25:57.764Z,2.67
2023-01-19T06:28:25.510Z,1.65
2023-01-19T06:30:54.404Z,2.65
2023-01-19T06:33:22.949Z,3.40
2023-01-19T06:35:51.059Z,3.10
2023-01-19T06:38:19.288Z,3.60
2023-01-19T06:40:53.839Z,5.55
2023-01-19T06:43:21.692Z,4.65
2023-01-19T06:45:50.097Z,4.97
2023-01-19T06:48:18.054Z,5.57
2023-01-19T06:50:46.672Z,6.22
2023-01-19T06:53:16.514Z,6.32
2023-01-19T06:55:44.223Z,7.32
2023-01-19T06:58:11.982Z,7.78
2023-01-19T07:00:39.645Z,7.85
2023-01-19T07:03:07.850Z,7.00
2023-01-19T07:05:36.241Z,7.50
2023-01-19T07:08:04.212Z,7.43
2023-01-19T07:11:25.420Z,6.87
2023-01-19T07:13:19.593Z,7.85
2023-01-19T07:15:46.975Z,5.97
2023-01-19T07:18:14.387Z,7.70
2023-01-19T07:20:42.035Z,7.82
2023-01-19T07:23:09.375Z,9.98
2023-01-19T07:25:36.816Z,9.13
2023-01-19T07:28:04.543Z,13.77
2023-01-19T07:30:31.986Z,11.65
2023-01-19T07:32:59.780Z,11.73
2023-01-19T07:35:29.609Z,7.68
2023-01-19T07:37:56.927Z,6.65
2023-01-19T07:40:24.308Z,6.93
2023-01-19T07:42:52.105Z,6.80
2023-01-19T07:45:20.840Z,6.03
2023-01-19T07:47:49.712Z,6.80
2023-01-19T07:50:21.153Z,8.07
2023-01-19T07:52:53.322Z,6.62
2023-01-19T07:57:51.058Z,7.75
2023-01-19T08:00:21.849Z,13.05
2023-01-19T08:02:52.490Z,9.52
2023-01-19T08:05:20.397Z,9.57
2023-01-19T08:07:48.318Z,10.35
2023-01-19T08:10:18.668Z,10.27
2023-01-19T08:12:45.982Z,10.73
2023-01-19T08:15:13.542Z,14.38
2023-01-19T08:17:41.138Z,13.18
2023-01-19T08:20:09.840Z,13.32
2023-01-19T08:22:37.781Z,12.77
2023-01-19T08:25:05.786Z,12.07
2023-01-19T08:27:33.095Z,13.85
2023-01-19T08:30:00.781Z,17.77
2023-01-19T08:32:28.425Z,19.62
2023-01-19T08:34:55.971Z,19.58
2023-01-19T08:37:24.793Z,18.85
2023-01-19T08:39:53.940Z,19.62
2023-01-19T08:42:21.558Z,21.60
2023-01-19T08:44:57.518Z,20.45
2023-01-19T08:47:25.713Z,19.17
2023-01-19T08:49:53.143Z,23.50
2023-01-19T08:52:20.473Z,22.37
2023-01-19T08:54:48.073Z,23.08
2023-01-19T08:57:16.191Z,19.27
2023-01-19T08:59:43.742Z,21.15
2023-01-19T09:02:12.137Z,20.40
2023-01-19T09:04:39.615Z,20.85
2023-01-19T09:07:07.005Z,21.40
2023-01-19T09:09:37.796Z,19.92
2023-01-19T09:12:05.389Z,24.25
2023-01-19T09:14:32.749Z,19.87
2023-01-19T09:17:00.441Z,21.98
2023-01-19T09:19:27.864Z,20.35
2023-01-19T09:21:55.284Z,18.27
2023-01-19T09:24:22.939Z,20.80
2023-01-19T09:26:50.601Z,20.23
2023-01-19T09:29:17.975Z,21.00
2023-01-19T09:31:45.709Z,20.73
2023-01-19T09:34:13.168Z,21.33
2023-01-19T09:36:40.599Z,17.10
2023-01-19T09:39:09.293Z,22.58
2023-01-19T09:41:38.646Z,21.00
2023-01-19T09:44:06.190Z,18.40
2023-01-19T09:46:38.978Z,19.23
2023-01-19T09:49:44.073Z,21.77
2023-01-19T09:52:15.032Z,19.75
2023-01-19T09:54:56.616Z,18.02
2023-01-19T09:57:25.223Z,19.43
2023-01-19T09:59:57.844Z,17.90
2023-01-19T10:02:36.490Z,18.30
2023-01-19T10:05:05.408Z,21.42
2023-01-19T10:07:32.670Z,22.95
2023-01-19T10:10:21.129Z,20.17
2023-01-19T10:13:25.098Z,18.67
2023-01-19T10:16:02.439Z,19.48
2023-01-19T10:18:47.904Z,19.92
2023-01-19T10:21:21.701Z,19.23
2023-01-19T10:23:55.281Z,19.20
2023-01-19T10:26:41.185Z,20.70
2023-01-19T10:29:19.731Z,23.33
2023-01-19T10:31:47.661Z,22.55
2023-01-19T10:34:20.947Z,19.70
2023-01-19T10:36:59.067Z,25.00
2023-01-19T10:39:26.824Z,20.12
2023-01-19T10:41:54.240Z,23.30
2023-01-19T10:44:26.675Z,21.98
2023-01-19T10:46:56.911Z,20.65
2023-01-19T10:49:39.145Z,22.37
2023-01-19T10:52:19.055Z,22.40
2023-01-19T10:54:48.468Z,20.27
2023-01-19T10:57:36.568Z,20.83
2023-01-19T11:00:06.426Z,24.20
2023-01-19T11:02:34.504Z,23.15
2023-01-19T11:05:22.904Z,23.50
2023-01-19T11:07:50.607Z,25.00
2023-01-19T11:10:20.683Z,21.37
2023-01-19T11:13:15.682Z,23.35
2023-01-19T11:15:45.831Z,26.90
2023-01-19T11:18:39.652Z,22.77
2023-01-19T11:21:10.034Z,26.33
2023-01-19T11:23:43.055Z,25.65
2023-01-19T11:26:25.071Z,26.05
2023-01-19T11:28:56.003Z,22.80
2023-01-19T11:31:29.833Z,25.92
2023-01-19T11:34:25.945Z,23.25
2023-01-19T11:37:31.049Z,27.52
2023-01-19T11:39:59.695Z,24.50
2023-01-19T11:42:30.962Z,30.65
2023-01-19T11:45:11.024Z,25.40
2023-01-19T11:47:44.197Z,23.48
2023-01-19T11:50:35.078Z,22.52
2023-01-19T11:53:24.797Z,22.58
2023-01-19T11:55:56.883Z,27.90
2023-01-19T11:58:25.997Z,28.90
2023-01-19T12:01:20.867Z,23.98
2023-01-19T12:03:54.870Z,22.40
2023-01-19T12:06:26.314Z,20.42
2023-01-19T12:09:00.199Z,21.87
2023-01-19T12:11:32.496Z,20.73
2023-01-19T12:16:30.134Z,21.27
2023-01-19T12:19:01.648Z,17.58
2023-01-19T12:21:29.589Z,20.67
2023-01-19T12:24:16.395Z,18.30
2023-01-19T12:26:51.924Z,19.87
2023-01-19T12:29:22.359Z,20.75
2023-01-19T12:32:14.889Z,18.50
2023-01-19T12:34:49.549Z,17.20
2023-01-19T12:37:37.227Z,18.42
2023-01-19T12:40:20.284Z,16.58
2023-01-19T12:42:55.223Z,17.30
2023-01-19T12:45:25.685Z,14.45
2023-01-19T12:47:54.543Z,16.02
2023-01-19T12:50:25.742Z,16.05
2023-01-19T12:52:57.441Z,14.87
2023-01-19T12:55:27.849Z,16.40
2023-01-19T12:58:00.684Z,15.43
2023-01-19T13:00:35.532Z,16.27
2023-01-19T13:03:18.425Z,17.52
2023-01-19T13:08:18.155Z,18.33
2023-01-19T13:11:07.796Z,19.23
2023-01-19T13:13:40.147Z,18.27
2023-01-19T13:16:19.909Z,18.35
2023-01-19T13:19:06.225Z,17.95
2023-01-19T13:21:44.695Z,19.95
2023-01-19T13:24:17.696Z,17.87
2023-01-19T13:29:33.112Z,17.12
2023-01-19T13:32:24.124Z,17.33
2023-01-19T13:34:57.151Z,18.00
2023-01-19T13:37:34.517Z,18.55
2023-01-19T13:40:02.663Z,19.83
2023-01-19T13:42:40.857Z,20.12
2023-01-19T13:45:33.525Z,19.00
2023-01-19T13:48:06.441Z,18.67
2023-01-19T13:50:38.527Z,18.20
2023-01-19T13:53:19.307Z,17.40
2023-01-19T13:55:48.167Z,20.05
2023-01-19T13:58:22.177Z,16.67
2023-01-19T14:00:50.091Z,17.75
2023-01-19T14:03:23.610Z,19.95
2023-01-19T14:05:52.480Z,17.48
2023-01-19T14:08:20.803Z,17.50
2023-01-19T14:10:54.058Z,15.68
2023-01-19T14:13:27.119Z,15.57
2023-01-19T14:15:57.873Z,17.20
2023-01-19T14:18:30.934Z,20.80
2023-01-19T14:21:11.257Z,13.88
2023-01-19T14:23:47.131Z,16.10
2023-01-19T14:26:43.068Z,15.23
2023-01-19T14:29:38.116Z,17.83
2023-01-19T14:32:20.101Z,16.17
2023-01-19T14:35:03.993Z,16.12
2023-01-19T14:37:34.037Z,16.23
2023-01-19T14:40:04.854Z,14.32
2023-01-19T14:42:35.692Z,15.13
2023-01-19T14:45:07.175Z,17.50
2023-01-19T14:47:40.334Z,16.03
2023-01-19T14:50:21.605Z,14.60
2023-01-19T14:52:56.833Z,14.82
2023-01-19T14:55:32.461Z,15.23
2023-01-19T14:57:59.862Z,16.45
2023-01-19T15:00:27.615Z,14.75
2023-01-19T15:02:54.956Z,15.90
2023-01-19T15:05:23.117Z,15.80
2023-01-19T15:07:52.189Z,16.10
2023-01-19T15:10:22.127Z,15.40
2023-01-19T15:12:53.879Z,12.75
2023-01-19T15:15:29.714Z,14.82
2023-01-19T15:17:58.051Z,15.70
2023-01-19T15:20:25.823Z,16.35
2023-01-19T15:22:53.199Z,16.35
2023-01-19T15:25:26.111Z,18.48
2023-01-19T15:27:57.912Z,18.17
2023-01-19T15:30:31.232Z,19.37
2023-01-19T15:32:59.531Z,16.55
2023-01-19T15:35:26.920Z,20.70
2023-01-19T15:37:54.427Z,17.20
2023-01-19T15:40:23.214Z,17.65
2023-01-19T15:42:50.843Z,19.85
2023-01-19T15:45:39.579Z,21.23
2023-01-19T15:48:09.454Z,20.00
2023-01-19T15:50:39.267Z,20.80
2023-01-19T15:53:07.596Z,25.67
2023-01-19T15:55:34.962Z,22.52
2023-01-19T15:58:02.440Z,26.00
2023-01-19T16:00:31.994Z,24.02
2023-01-19T16:03:01.462Z,20.92
2023-01-19T16:05:41.803Z,19.95
2023-01-19T16:08:13.438Z,20.75
2023-01-19T16:10:41.774Z,21.92
2023-01-19T16:13:11.333Z,19.65
2023-01-19T16:15:39.666Z,20.17
2023-01-19T16:18:07.106Z,22.25
2023-01-19T16:20:34.489Z,25.12
2023-01-19T16:23:14.579Z,19.58
2023-01-19T16:25:43.088Z,19.33
2023-01-19T16:28:10.716Z,22.10
2023-01-19T16:30:38.178Z,21.02
2023-01-19T16:33:05.571Z,21.65
2023-01-19T16:35:33.177Z,18.17
2023-01-19T16:38:00.561Z,18.62
2023-01-19T16:40:27.929Z,18.05
2023-01-19T16:42:55.609Z,18.50
2023-01-19T16:45:22.999Z,21.37
2023-01-19T16:47:52.143Z,20.85
2023-01-19T16:50:19.910Z,20.55
2023-01-19T16:52:47.360Z,20.75
2023-01-19T16:55:14.714Z,20.50
2023-01-19T16:57:42.413Z,21.42
2023-01-19T17:00:10.960Z,18.67
2023-01-19T17:02:38.498Z,20.40
2023-01-19T17:05:06.714Z,22.58
2023-01-19T17:07:34.068Z,19.62
2023-01-19T17:10:01.526Z,18.85
2023-01-19T17:12:31.986Z,21.35
2023-01-19T17:14:59.595Z,21.30
2023-01-19T17:17:26.939Z,19.17
2023-01-19T17:19:54.663Z,18.35
2023-01-19T17:22:22.042Z,19.70
2023-01-19T17:24:49.816Z,16.80
2023-01-19T17:27:17.501Z,17.37
2023-01-19T17:29:44.928Z,19.45
2023-01-19T17:32:12.408Z,19.12
2023-01-19T17:34:40.610Z,19.00
2023-01-19T17:37:08.011Z,21.15
2023-01-19T17:39:35.406Z,23.52
2023-01-19T17:42:03.491Z,18.33
2023-01-19T17:44:30.946Z,19.12
2023-01-19T17:46:59.972Z,18.50
2023-01-19T17:49:27.913Z,19.42
2023-01-19T17:51:55.779Z,19.08
2023-01-19T17:54:23.250Z,17.98
2023-01-19T17:56:50.938Z,18.37
2023-01-19T17:59:18.386Z,22.33
2023-01-19T18:01:46.526Z,21.60
2023-01-19T18:04:14.378Z,18.45
2023-01-19T18:06:41.769Z,17.95
2023-01-19T18:09:09.165Z,20.08
2023-01-19T18:11:36.838Z,19.15
2023-01-19T18:14:05.421Z,16.80
2023-01-19T18:16:33.247Z,18.40
2023-01-19T18:19:01.110Z,18.35
2023-01-19T18:21:30.425Z,17.58
2023-01-19T18:24:02.877Z,20.33
2023-01-19T18:26:32.131Z,16.55
2023-01-19T18:29:00.192Z,17.20
2023-01-19T18:31:28.108Z,15.02
2023-01-19T18:33:55.909Z,15.95
2023-01-19T18:36:23.497Z,17.23
2023-01-19T18:38:51.201Z,16.87
2023-01-19T18:41:20.840Z,14.95
2023-01-19T18:43:48.795Z,15.98
2023-01-19T18:46:16.631Z,13.60
2023-01-19T18:48:44.435Z,14.70
2023-01-19T18:51:13.967Z,15.98
2023-01-19T18:53:41.427Z,14.43
2023-01-19T18:56:12.371Z,14.25
2023-01-19T18:58:39.851Z,13.55
2023-01-19T19:01:17.480Z,15.95
2023-01-19T19:03:45.319Z,13.05
2023-01-19T19:06:12.855Z,15.38
2023-01-19T19:08:40.477Z,16.73
2023-01-19T19:11:08.587Z,15.50
2023-01-19T19:13:36.563Z,16.45
2023-01-19T19:16:05.876Z,15.50
2023-01-19T19:18:37.885Z,14.55
2023-01-19T19:21:10.493Z,15.85
2023-01-19T19:23:38.528Z,16.40
2023-01-19T19:26:08.796Z,16.83
2023-01-19T19:28:37.424Z,14.48
2023-01-19T19:31:13.097Z,13.98
2023-01-19T19:33:41.024Z,17.37
2023-01-19T19:36:10.190Z,17.33
2023-01-19T19:38:37.895Z,15.32
2023-01-19T19:41:09.977Z,14.98
2023-01-19T19:43:38.424Z,14.35
2023-01-19T19:46:07.997Z,12.98
2023-01-19T19:48:38.156Z,12.70
2023-01-19T19:51:19.496Z,15.25
2023-01-19T19:53:49.042Z,15.85
2023-01-19T19:56:21.199Z,13.30
2023-01-19T19:58:49.371Z,16.48
2023-01-19T20:01:21.538Z,15.27
2023-01-19T20:06:20.744Z,14.82
2023-01-19T20:08:49.142Z,15.10
2023-01-19T20:11:19.394Z,16.67
2023-01-19T20:13:47.728Z,13.45
2023-01-19T20:16:17.791Z,13.57
2023-01-19T20:18:48.590Z,12.95
2023-01-19T20:21:19.233Z,16.05
2023-01-19T20:23:48.939Z,17.08
2023-01-19T20:26:19.961Z,16.62
2023-01-19T20:28:48.063Z,14.73
2023-01-19T20:31:19.054Z,16.45
2023-01-19T20:33:47.708Z,17.48
2023-01-19T20:36:15.691Z,13.65
2023-01-19T20:38:43.338Z,16.37
2023-01-19T20:41:12.219Z,19.02
2023-01-19T20:43:39.896Z,18.50
2023-01-19T20:46:07.536Z,15.70
2023-01-19T20:48:35.373Z,16.77
2023-01-19T20:51:11.469Z,18.15
2023-01-19T20:53:40.627Z,19.12
2023-01-19T20:56:13.105Z,20.98
2023-01-19T21:01:17.477Z,21.27
2023-01-19T21:03:45.101Z,19.23
2023-01-19T21:06:12.895Z,17.25
2023-01-19T21:08:40.454Z,16.83
2023-01-19T21:11:08.591Z,18.33
2023-01-19T21:13:36.771Z,16.65
2023-01-19T21:16:04.758Z,18.15
2023-01-19T21:18:32.429Z,17.62
2023-01-19T21:21:00.140Z,19.37
2023-01-19T21:23:28.071Z,18.67
2023-01-19T21:25:58.289Z,17.52
2023-01-19T21:28:27.052Z,17.58
2023-01-19T21:30:55.385Z,18.05
2023-01-19T21:33:23.210Z,16.58
2023-01-19T21:35:56.188Z,17.40
2023-01-19T21:38:26.713Z,18.40
2023-01-19T21:40:55.401Z,16.00
2023-01-19T21:43:23.486Z,20.95
2023-01-19T21:45:50.956Z,17.10
2023-01-19T21:48:19.696Z,15.35
2023-01-19T21:50:56.569Z,16.87
2023-01-19T21:53:24.282Z,14.43
2023-01-19T21:55:51.709Z,18.40
2023-01-19T21:58:19.049Z,14.18
2023-01-19T22:00:46.799Z,17.87
2023-01-19T22:03:14.567Z,13.52
2023-01-19T22:05:42.077Z,14.82
2023-01-19T22:08:09.600Z,17.55
2023-01-19T22:10:37.524Z,17.42
2023-01-19T22:13:06.600Z,17.95
2023-01-19T22:15:34.099Z,15.00
2023-01-19T22:18:01.763Z,16.83
2023-01-19T22:20:29.159Z,20.37
2023-01-19T22:22:57.062Z,17.65
2023-01-19T22:25:27.771Z,17.52
2023-01-19T22:27:55.819Z,17.33
2023-01-19T22:30:23.365Z,15.82
2023-01-19T22:32:53.000Z,14.25
2023-01-19T22:35:21.250Z,16.73
2023-01-19T22:37:48.624Z,18.87
2023-01-19T22:40:16.757Z,15.45
2023-01-19T22:42:47.996Z,19.58
2023-01-19T22:45:16.019Z,15.30
2023-01-19T22:47:43.451Z,17.35
2023-01-19T22:50:10.868Z,17.25
2023-01-19T22:52:38.471Z,17.80
2023-01-19T22:55:06.174Z,18.15
2023-01-19T22:57:36.431Z,15.43
2023-01-19T23:00:07.050Z,15.13
2023-01-19T23:02:34.544Z,16.65
2023-01-19T23:05:01.897Z,14.98
2023-01-19T23:07:29.642Z,17.20
2023-01-19T23:09:56.996Z,15.43
2023-01-19T23:12:24.420Z,17.20
2023-01-19T23:14:52.100Z,15.23
2023-01-19T23:17:19.484Z,14.73
2023-01-19T23:19:47.000Z,14.85
2023-01-19T23:22:14.616Z,14.30
2023-01-19T23:24:41.963Z,14.20
2023-01-19T23:27:09.609Z,15.07
2023-01-19T23:29:37.400Z,16.70
2023-01-19T23:32:04.929Z,17.00
2023-01-19T23:34:32.250Z,16.52
2023-01-19T23:36:59.860Z,14.45
2023-01-19T23:39:27.192Z,13.30
2023-01-19T23:41:54.572Z,15.38
2023-01-19T23:44:22.195Z,14.82
2023-01-19T23:46:49.560Z,13.43
2023-01-19T23:49:18.063Z,15.30
2023-01-19T23:51:45.714Z,14.98
2023-01-19T23:54:13.038Z,15.63
2023-01-19T23:56:42.592Z,14.25
2023-01-19T23:59:12.747Z,13.45
